createdAt,value
2017-02-22T00:00:39.761Z,994.08
2017-02-22T00:01:39.790Z,993.98
2017-02-22T00:02:39.819Z,994.01
2017-02-22T00:03:39.844Z,993.99
2017-02-22T00:04:39.874Z,993.96
2017-02-22T00:05:39.897Z,993.98
2017-02-22T00:06:39.931Z,994.01
2017-02-22T00:07:39.955Z,994.04
2017-02-22T00:08:39.984Z,994.05
2017-02-22T00:09:40.012Z,993.97
2017-02-22T00:10:40.037Z,994.07
2017-02-22T00:11:40.316Z,994.04
2017-02-22T00:12:40.095Z,994.04
2017-02-22T00:13:40.123Z,994.02
2017-02-22T00:14:40.149Z,994.02
2017-02-22T00:15:40.173Z,994
2017-02-22T00:16:40.457Z,994.01
2017-02-22T00:17:40.235Z,994.01
2017-02-22T00:18:40.259Z,993.96
2017-02-22T00:19:40.287Z,993.96
2017-02-22T00:20:40.317Z,993.99
2017-02-22T00:21:40.641Z,993.99
2017-02-22T00:22:40.369Z,993.97
2017-02-22T00:23:40.399Z,994.08
2017-02-22T00:24:40.425Z,994.03
2017-02-22T00:25:40.450Z,994.02
2017-02-22T00:26:40.480Z,994
2017-02-22T00:27:40.510Z,993.95
2017-02-22T00:28:40.535Z,993.89
2017-02-22T00:29:40.564Z,994.01
2017-02-22T00:30:40.591Z,993.89
2017-02-22T00:31:40.618Z,993.94
2017-02-22T00:32:40.641Z,993.91
2017-02-22T00:33:40.674Z,993.86
2017-02-22T00:34:40.695Z,993.87
2017-02-22T00:35:40.728Z,993.9
2017-02-22T00:36:40.757Z,993.9
2017-02-22T00:37:40.783Z,993.91
2017-02-22T00:38:40.810Z,993.84
2017-02-22T00:39:40.839Z,993.87
2017-02-22T00:40:40.864Z,993.8
2017-02-22T00:41:40.893Z,993.87
2017-02-22T00:42:40.921Z,993.8
2017-02-22T00:43:40.951Z,993.82
2017-02-22T00:44:40.974Z,993.72
2017-02-22T00:45:41.003Z,993.8
2017-02-22T00:46:41.034Z,993.73
2017-02-22T00:47:41.053Z,993.81
2017-02-22T00:48:41.090Z,993.8
2017-02-22T00:49:41.114Z,993.77
2017-02-22T00:50:41.144Z,993.76
2017-02-22T00:51:41.167Z,993.69
2017-02-22T00:52:41.198Z,993.72
2017-02-22T00:53:41.225Z,993.72
2017-02-22T00:54:41.247Z,993.66
2017-02-22T00:55:41.280Z,993.69
2017-02-22T00:56:41.307Z,993.7
2017-02-22T00:57:41.331Z,993.68
2017-02-22T00:58:41.360Z,993.67
2017-02-22T00:59:41.390Z,993.64
2017-02-22T01:00:41.414Z,993.59
2017-02-22T01:01:41.443Z,993.59
2017-02-22T01:02:41.472Z,993.62
2017-02-22T01:03:41.496Z,993.58
2017-02-22T01:04:41.524Z,993.62
2017-02-22T01:05:41.554Z,993.61
2017-02-22T01:06:41.583Z,993.63
2017-02-22T01:07:41.607Z,993.59
2017-02-22T01:08:41.637Z,993.58
2017-02-22T01:09:41.665Z,993.56
2017-02-22T01:10:41.690Z,993.59
2017-02-22T01:11:41.721Z,993.52
2017-02-22T01:12:41.747Z,993.53
2017-02-22T01:13:41.773Z,993.5
2017-02-22T01:14:41.800Z,993.55
2017-02-22T01:15:41.829Z,993.54
2017-02-22T01:16:41.854Z,993.47
2017-02-22T01:17:41.883Z,993.46
2017-02-22T01:18:41.909Z,993.45
2017-02-22T01:19:41.940Z,993.46
2017-02-22T01:20:41.965Z,993.44
2017-02-22T01:21:41.993Z,993.4
2017-02-22T01:22:42.023Z,993.4
2017-02-22T01:23:42.046Z,993.33
2017-02-22T01:24:42.074Z,993.37
2017-02-22T01:25:42.105Z,993.27
2017-02-22T01:26:42.129Z,993.29
2017-02-22T01:27:42.409Z,993.32
2017-02-22T01:28:42.187Z,993.28
2017-02-22T01:29:42.211Z,993.27
2017-02-22T01:30:42.240Z,993.25
2017-02-22T01:31:42.269Z,993.19
2017-02-22T01:32:42.545Z,993.23
2017-02-22T01:33:42.324Z,993.16
2017-02-22T01:34:42.350Z,993.18
2017-02-22T01:35:42.375Z,993.23
2017-02-22T01:36:42.404Z,993.15
2017-02-22T01:37:42.680Z,993.13
2017-02-22T01:38:42.458Z,993.08
2017-02-22T01:39:42.486Z,993.06
2017-02-22T01:40:42.516Z,993.14
2017-02-22T01:41:42.536Z,993.19
2017-02-22T01:42:42.820Z,993.19
2017-02-22T01:43:42.598Z,993.19
2017-02-22T01:44:42.623Z,993.13
2017-02-22T01:45:42.653Z,993.19
2017-02-22T01:46:42.679Z,993.18
2017-02-22T01:47:43.004Z,993.21
2017-02-22T01:48:43.047Z,993.2
2017-02-22T01:49:42.758Z,993.2
2017-02-22T01:50:42.786Z,993.13
2017-02-22T01:51:42.812Z,993.13
2017-02-22T01:52:43.094Z,993.11
2017-02-22T01:53:42.870Z,993.07
2017-02-22T01:54:42.897Z,993.06
2017-02-22T01:55:42.927Z,993.04
2017-02-22T01:56:42.950Z,993.04
2017-02-22T01:57:43.232Z,993
2017-02-22T01:58:43.009Z,992.9
2017-02-22T01:59:43.034Z,992.91
2017-02-22T02:00:43.062Z,992.91
2017-02-22T02:01:43.087Z,992.87
2017-02-22T02:02:43.366Z,992.86
2017-02-22T02:03:43.145Z,992.9
2017-02-22T02:04:43.170Z,992.84
2017-02-22T02:05:43.198Z,992.86
2017-02-22T02:06:43.227Z,992.81
2017-02-22T02:07:43.507Z,992.74
2017-02-22T02:08:43.281Z,992.79
2017-02-22T02:09:43.309Z,992.79
2017-02-22T02:10:43.333Z,992.77
2017-02-22T02:11:43.358Z,992.75
2017-02-22T02:12:43.639Z,992.73
2017-02-22T02:13:43.418Z,992.72
2017-02-22T02:14:43.444Z,992.67
2017-02-22T02:15:43.473Z,992.64
2017-02-22T02:16:43.498Z,992.63
2017-02-22T02:17:43.523Z,992.66
2017-02-22T02:18:43.556Z,992.65
2017-02-22T02:19:43.580Z,992.69
2017-02-22T02:20:43.608Z,992.66
2017-02-22T02:21:43.639Z,992.66
2017-02-22T02:22:43.663Z,992.61
2017-02-22T02:23:43.691Z,992.66
2017-02-22T02:24:43.721Z,992.66
2017-02-22T02:25:43.745Z,992.6
2017-02-22T02:26:43.774Z,992.63
2017-02-22T02:27:43.799Z,992.59
2017-02-22T02:28:43.827Z,992.65
2017-02-22T02:29:43.858Z,992.53
2017-02-22T02:30:43.882Z,992.53
2017-02-22T02:31:43.913Z,992.54
2017-02-22T02:32:43.939Z,992.47
2017-02-22T02:33:43.959Z,992.48
2017-02-22T02:34:43.992Z,992.49
2017-02-22T02:35:44.020Z,992.49
2017-02-22T02:36:44.045Z,992.45
2017-02-22T02:37:44.074Z,992.47
2017-02-22T02:38:44.103Z,992.38
2017-02-22T02:39:44.127Z,992.41
2017-02-22T02:40:44.152Z,992.36
2017-02-22T02:41:44.185Z,992.37
2017-02-22T02:42:44.210Z,992.33
2017-02-22T02:43:44.238Z,992.36
2017-02-22T02:44:44.267Z,992.34
2017-02-22T02:45:44.293Z,992.34
2017-02-22T02:46:44.321Z,992.4
2017-02-22T02:47:44.350Z,992.39
2017-02-22T02:48:44.374Z,992.35
2017-02-22T02:49:44.402Z,992.39
2017-02-22T02:50:44.431Z,992.36
2017-02-22T02:51:44.457Z,992.35
2017-02-22T02:52:44.484Z,992.31
2017-02-22T02:53:44.514Z,992.34
2017-02-22T02:54:44.540Z,992.32
2017-02-22T02:55:44.568Z,992.31
2017-02-22T02:56:44.592Z,992.34
2017-02-22T02:57:44.621Z,992.27
2017-02-22T02:58:44.651Z,992.38
2017-02-22T02:59:44.674Z,992.35
2017-02-22T03:00:44.703Z,992.35
2017-02-22T03:01:44.732Z,992.36
2017-02-22T03:02:44.753Z,992.4
2017-02-22T03:03:44.785Z,992.42
2017-02-22T03:04:44.815Z,992.33
2017-02-22T03:05:44.835Z,992.32
2017-02-22T03:06:44.868Z,992.34
2017-02-22T03:07:44.892Z,992.39
2017-02-22T03:08:44.922Z,992.34
2017-02-22T03:09:44.949Z,992.29
2017-02-22T03:10:44.975Z,992.34
2017-02-22T03:11:45.004Z,992.31
2017-02-22T03:12:45.028Z,992.36
2017-02-22T03:13:45.058Z,992.29
2017-02-22T03:14:45.085Z,992.32
2017-02-22T03:15:45.114Z,992.28
2017-02-22T03:16:45.139Z,992.33
2017-02-22T03:17:45.165Z,992.26
2017-02-22T03:18:45.192Z,992.31
2017-02-22T03:19:45.222Z,992.28
2017-02-22T03:20:45.250Z,992.23
2017-02-22T03:21:45.274Z,992.3
2017-02-22T03:22:45.298Z,992.23
2017-02-22T03:23:45.331Z,992.22
2017-02-22T03:24:45.357Z,992.29
2017-02-22T03:25:45.384Z,992.33
2017-02-22T03:26:45.417Z,992.24
2017-02-22T03:27:45.435Z,992.25
2017-02-22T03:28:45.467Z,992.22
2017-02-22T03:29:45.492Z,992.19
2017-02-22T03:30:45.521Z,992.17
2017-02-22T03:31:45.551Z,992.19
2017-02-22T03:32:45.574Z,992.25
2017-02-22T03:33:45.603Z,992.21
2017-02-22T03:34:45.631Z,992.2
2017-02-22T03:35:45.656Z,992.19
2017-02-22T03:36:45.685Z,992.19
2017-02-22T03:37:45.713Z,992.18
2017-02-22T03:38:45.738Z,992.18
2017-02-22T03:39:45.767Z,992.25
2017-02-22T03:40:45.792Z,992.17
2017-02-22T03:41:45.821Z,992.19
2017-02-22T03:42:45.850Z,992.22
2017-02-22T03:43:46.125Z,992.16
2017-02-22T03:44:45.903Z,992.19
2017-02-22T03:45:45.932Z,992.16
2017-02-22T03:46:45.956Z,992.16
2017-02-22T03:47:45.985Z,992.18
2017-02-22T03:48:46.262Z,992.28
2017-02-22T03:49:46.038Z,992.24
2017-02-22T03:50:46.067Z,992.16
2017-02-22T03:51:46.092Z,992.12
2017-02-22T03:52:46.121Z,992.19
2017-02-22T03:53:46.401Z,992.15
2017-02-22T03:54:46.175Z,992.15
2017-02-22T03:55:46.204Z,992.19
2017-02-22T03:56:46.227Z,992.12
2017-02-22T03:57:46.258Z,992.17
2017-02-22T03:58:46.537Z,992.16
2017-02-22T03:59:46.311Z,992.13
2017-02-22T04:00:46.339Z,992.18
2017-02-22T04:01:46.367Z,992.14
2017-02-22T04:02:46.392Z,992.2
2017-02-22T04:03:46.672Z,992.22
2017-02-22T04:04:46.450Z,992.14
2017-02-22T04:05:46.475Z,992.15
2017-02-22T04:06:46.504Z,992.14
2017-02-22T04:07:46.529Z,992.18
2017-02-22T04:08:46.554Z,992.17
2017-02-22T04:09:46.583Z,992.21
2017-02-22T04:10:46.607Z,992.18
2017-02-22T04:11:46.634Z,992.16
2017-02-22T04:12:46.660Z,992.19
2017-02-22T04:13:46.693Z,992.1
2017-02-22T04:14:46.722Z,992.21
2017-02-22T04:15:46.746Z,992.15
2017-02-22T04:16:46.775Z,992.12
2017-02-22T04:17:46.806Z,992.19
2017-02-22T04:18:46.832Z,992.11
2017-02-22T04:19:46.858Z,992.09
2017-02-22T04:20:46.880Z,992.07
2017-02-22T04:21:46.912Z,992.11
2017-02-22T04:22:46.938Z,992.09
2017-02-22T04:23:46.960Z,992.06
2017-02-22T04:24:46.994Z,992.08
2017-02-22T04:25:47.022Z,992.11
2017-02-22T04:26:47.047Z,992.12
2017-02-22T04:27:47.076Z,992.08
2017-02-22T04:28:47.100Z,992.22
2017-02-22T04:29:47.130Z,992.13
2017-02-22T04:30:47.159Z,992.13
2017-02-22T04:31:47.179Z,992.13
2017-02-22T04:32:47.211Z,992.15
2017-02-22T04:33:47.241Z,992.08
2017-02-22T04:34:47.266Z,992.03
2017-02-22T04:35:47.295Z,992.02
2017-02-22T04:36:47.319Z,992.01
2017-02-22T04:37:47.347Z,992.05
2017-02-22T04:38:47.377Z,992
2017-02-22T04:39:47.401Z,991.98
2017-02-22T04:40:47.430Z,992.04
2017-02-22T04:41:47.455Z,991.98
2017-02-22T04:42:47.484Z,991.93
2017-02-22T04:43:47.512Z,991.9
2017-02-22T04:44:47.537Z,991.9
2017-02-22T04:45:47.566Z,991.91
2017-02-22T04:46:47.589Z,991.83
2017-02-22T04:47:47.619Z,991.94
2017-02-22T04:48:47.644Z,991.87
2017-02-22T04:49:47.668Z,991.87
2017-02-22T04:50:47.700Z,991.8
2017-02-22T04:51:47.727Z,991.86
2017-02-22T04:52:47.755Z,991.85
2017-02-22T04:53:47.784Z,991.82
2017-02-22T04:54:47.804Z,991.79
2017-02-22T04:55:47.837Z,991.81
2017-02-22T04:56:47.860Z,991.85
2017-02-22T04:57:47.891Z,991.79
2017-02-22T04:58:47.920Z,991.82
2017-02-22T04:59:47.945Z,991.85
2017-02-22T05:00:47.974Z,991.85
2017-02-22T05:01:47.998Z,991.8
2017-02-22T05:02:48.028Z,991.8
2017-02-22T05:03:48.053Z,991.8
2017-02-22T05:04:48.080Z,991.78
2017-02-22T05:05:48.109Z,991.8
2017-02-22T05:06:48.139Z,991.73
2017-02-22T05:07:48.163Z,991.74
2017-02-22T05:08:48.188Z,991.7
2017-02-22T05:09:48.213Z,991.7
2017-02-22T05:10:48.249Z,991.71
2017-02-22T05:11:48.271Z,991.73
2017-02-22T05:12:48.295Z,991.7
2017-02-22T05:13:48.327Z,991.71
2017-02-22T05:14:48.352Z,991.69
2017-02-22T05:15:48.381Z,991.69
2017-02-22T05:16:48.406Z,991.65
2017-02-22T05:17:48.435Z,991.63
2017-02-22T05:18:48.458Z,991.63
2017-02-22T05:19:48.488Z,991.59
2017-02-22T05:20:48.517Z,991.59
2017-02-22T05:21:48.538Z,991.58
2017-02-22T05:22:48.570Z,991.59
2017-02-22T05:23:48.595Z,991.57
2017-02-22T05:24:48.624Z,991.62
2017-02-22T05:25:48.647Z,991.59
2017-02-22T05:26:48.677Z,991.53
2017-02-22T05:27:48.724Z,991.54
2017-02-22T05:28:48.730Z,991.55
2017-02-22T05:29:49.011Z,991.63
2017-02-22T05:30:48.780Z,991.51
2017-02-22T05:31:48.813Z,991.6
2017-02-22T05:32:48.837Z,991.58
2017-02-22T05:33:48.866Z,991.54
2017-02-22T05:34:49.150Z,991.53
2017-02-22T05:35:48.920Z,991.56
2017-02-22T05:36:48.948Z,991.56
2017-02-22T05:37:48.973Z,991.56
2017-02-22T05:38:49.001Z,991.61
2017-02-22T05:39:49.286Z,991.61
2017-02-22T05:40:49.051Z,991.54
2017-02-22T05:41:49.092Z,991.57
2017-02-22T05:42:49.113Z,991.56
2017-02-22T05:43:49.140Z,991.5
2017-02-22T05:44:49.413Z,991.56
2017-02-22T05:45:49.186Z,991.54
2017-02-22T05:46:49.220Z,991.51
2017-02-22T05:47:49.239Z,991.51
2017-02-22T05:48:49.278Z,991.56
2017-02-22T05:49:49.549Z,991.54
2017-02-22T05:50:49.326Z,991.52
2017-02-22T05:51:49.355Z,991.51
2017-02-22T05:52:49.379Z,991.51
2017-02-22T05:53:49.409Z,991.51
2017-02-22T05:54:49.689Z,991.48
2017-02-22T05:55:49.460Z,991.5
2017-02-22T05:56:49.491Z,991.47
2017-02-22T05:57:49.516Z,991.43
2017-02-22T05:58:49.545Z,991.45
2017-02-22T05:59:49.574Z,991.44
2017-02-22T06:00:49.598Z,991.44
2017-02-22T06:01:49.626Z,991.48
2017-02-22T06:02:49.652Z,991.5
2017-02-22T06:03:49.681Z,991.47
2017-02-22T06:04:49.709Z,991.44
2017-02-22T06:05:49.734Z,991.41
2017-02-22T06:06:49.766Z,991.43
2017-02-22T06:07:49.787Z,991.45
2017-02-22T06:08:49.816Z,991.43
2017-02-22T06:09:49.845Z,991.48
2017-02-22T06:10:49.870Z,991.52
2017-02-22T06:11:49.895Z,991.43
2017-02-22T06:12:49.923Z,991.56
2017-02-22T06:13:49.952Z,991.52
2017-02-22T06:14:49.977Z,991.57
2017-02-22T06:15:50.005Z,991.54
2017-02-22T06:16:50.030Z,991.52
2017-02-22T06:17:50.063Z,991.54
2017-02-22T06:18:50.087Z,991.53
2017-02-22T06:19:50.112Z,991.43
2017-02-22T06:20:50.141Z,991.5
2017-02-22T06:21:50.170Z,991.42
2017-02-22T06:22:50.194Z,991.5
2017-02-22T06:23:50.223Z,991.51
2017-02-22T06:24:50.252Z,991.54
2017-02-22T06:25:50.277Z,991.57
2017-02-22T06:26:50.299Z,991.55
2017-02-22T06:27:50.335Z,991.57
2017-02-22T06:28:50.358Z,991.55
2017-02-22T06:29:50.387Z,991.55
2017-02-22T06:30:50.416Z,991.48
2017-02-22T06:31:50.437Z,991.59
2017-02-22T06:32:50.470Z,991.49
2017-02-22T06:33:50.499Z,991.6
2017-02-22T06:34:50.524Z,991.64
2017-02-22T06:35:50.552Z,991.52
2017-02-22T06:36:50.581Z,991.56
2017-02-22T06:37:50.606Z,991.52
2017-02-22T06:38:50.634Z,991.57
2017-02-22T06:39:50.665Z,991.61
2017-02-22T06:40:50.691Z,991.55
2017-02-22T06:41:50.709Z,991.56
2017-02-22T06:42:50.746Z,991.6
2017-02-22T06:43:50.770Z,991.68
2017-02-22T06:44:50.799Z,991.58
2017-02-22T06:45:50.823Z,991.59
2017-02-22T06:46:50.852Z,991.64
2017-02-22T06:47:50.881Z,991.61
2017-02-22T06:48:50.906Z,991.66
2017-02-22T06:49:50.935Z,991.67
2017-02-22T06:50:50.963Z,991.66
2017-02-22T06:51:50.988Z,991.66
2017-02-22T06:52:51.017Z,991.69
2017-02-22T06:53:51.042Z,991.74
2017-02-22T06:54:51.070Z,991.7
2017-02-22T06:55:51.098Z,991.67
2017-02-22T06:56:51.124Z,991.74
2017-02-22T06:57:51.153Z,991.74
2017-02-22T06:58:51.181Z,991.79
2017-02-22T06:59:51.209Z,991.72
2017-02-22T07:00:51.235Z,991.72
2017-02-22T07:01:51.263Z,991.75
2017-02-22T07:02:51.289Z,991.77
2017-02-22T07:03:51.316Z,991.76
2017-02-22T07:04:51.343Z,991.81
2017-02-22T07:05:51.375Z,991.79
2017-02-22T07:06:51.398Z,991.87
2017-02-22T07:07:51.428Z,991.85
2017-02-22T07:08:51.457Z,991.83
2017-02-22T07:09:51.481Z,991.86
2017-02-22T07:10:51.763Z,991.76
2017-02-22T07:11:51.535Z,991.79
2017-02-22T07:12:51.564Z,991.8
2017-02-22T07:13:51.593Z,991.8
2017-02-22T07:14:51.622Z,991.83
2017-02-22T07:15:51.646Z,991.87
2017-02-22T07:16:51.671Z,991.74
2017-02-22T07:17:51.703Z,991.86
2017-02-22T07:18:51.728Z,991.86
2017-02-22T07:19:51.758Z,991.95
2017-02-22T07:20:51.786Z,991.85
2017-02-22T07:21:51.811Z,991.93
2017-02-22T07:22:51.840Z,991.98
2017-02-22T07:23:51.869Z,992.06
2017-02-22T07:24:51.894Z,991.93
2017-02-22T07:25:51.935Z,991.95
2017-02-22T07:26:51.951Z,991.92
2017-02-22T07:27:51.980Z,991.98
2017-02-22T07:28:52.004Z,991.96
2017-02-22T07:29:52.032Z,991.95
2017-02-22T07:30:52.062Z,991.99
2017-02-22T07:31:52.085Z,991.99
2017-02-22T07:32:52.110Z,991.91
2017-02-22T07:33:52.143Z,991.96
2017-02-22T07:34:52.169Z,991.93
2017-02-22T07:35:52.197Z,991.97
2017-02-22T07:36:52.227Z,991.95
2017-02-22T07:37:52.249Z,991.96
2017-02-22T07:38:52.280Z,991.99
2017-02-22T07:39:52.309Z,992.03
2017-02-22T07:40:52.334Z,992.06
2017-02-22T07:41:52.362Z,991.98
2017-02-22T07:42:52.387Z,992
2017-02-22T07:43:52.421Z,991.99
2017-02-22T07:44:52.444Z,992.02
2017-02-22T07:45:52.473Z,991.98
2017-02-22T07:46:52.502Z,992.08
2017-02-22T07:47:52.523Z,992.12
2017-02-22T07:48:52.556Z,992.09
2017-02-22T07:49:52.585Z,992.14
2017-02-22T07:50:52.609Z,992.09
2017-02-22T07:51:52.638Z,992.11
2017-02-22T07:52:52.663Z,992.09
2017-02-22T07:53:52.692Z,992.11
2017-02-22T07:54:52.720Z,992.02
2017-02-22T07:55:52.749Z,992.1
2017-02-22T07:56:52.774Z,992.08
2017-02-22T07:57:52.802Z,992.09
2017-02-22T07:58:52.831Z,992.05
2017-02-22T07:59:52.856Z,992.09
2017-02-22T08:00:52.885Z,992.14
2017-02-22T08:01:52.914Z,992.15
2017-02-22T08:02:52.935Z,992.11
2017-02-22T08:03:52.967Z,992.17
2017-02-22T08:04:52.996Z,992.15
2017-02-22T08:05:53.025Z,992.16
2017-02-22T08:06:53.049Z,992.15
2017-02-22T08:07:53.074Z,992.21
2017-02-22T08:08:53.107Z,992.22
2017-02-22T08:09:53.131Z,992.22
2017-02-22T08:10:53.160Z,992.21
2017-02-22T08:11:53.189Z,992.2
2017-02-22T08:12:53.210Z,992.26
2017-02-22T08:13:53.242Z,992.23
2017-02-22T08:14:53.272Z,992.22
2017-02-22T08:15:53.295Z,992.2
2017-02-22T08:16:53.580Z,992.19
2017-02-22T08:17:53.350Z,992.24
2017-02-22T08:18:53.379Z,992.22
2017-02-22T08:19:53.407Z,992.31
2017-02-22T08:20:53.432Z,992.26
2017-02-22T08:21:53.712Z,992.27
2017-02-22T08:22:53.489Z,992.27
2017-02-22T08:23:53.518Z,992.26
2017-02-22T08:24:53.544Z,992.19
2017-02-22T08:25:53.572Z,992.21
2017-02-22T08:26:53.601Z,992.25
2017-02-22T08:27:53.626Z,992.23
2017-02-22T08:28:53.657Z,992.14
2017-02-22T08:29:53.679Z,992.14
2017-02-22T08:30:53.709Z,992.25
2017-02-22T08:31:53.737Z,992.16
2017-02-22T08:32:53.768Z,992.15
2017-02-22T08:33:53.789Z,992.19
2017-02-22T08:34:53.815Z,992.19
2017-02-22T08:35:53.848Z,992.16
2017-02-22T08:36:53.875Z,992.16
2017-02-22T08:37:53.901Z,992.07
2017-02-22T08:38:53.929Z,992.09
2017-02-22T08:39:53.952Z,992.08
2017-02-22T08:40:53.983Z,992.1
2017-02-22T08:41:54.011Z,992.17
2017-02-22T08:42:54.036Z,992.13
2017-02-22T08:43:54.066Z,992.1
2017-02-22T08:44:54.095Z,992.11
2017-02-22T08:45:54.119Z,992.19
2017-02-22T08:46:54.146Z,992.12
2017-02-22T08:47:54.176Z,992.18
2017-02-22T08:48:54.201Z,992.15
2017-02-22T08:49:54.229Z,992.13
2017-02-22T08:50:54.255Z,992.15
2017-02-22T08:51:54.284Z,992.09
2017-02-22T08:52:54.313Z,992.11
2017-02-22T08:53:54.341Z,992.16
2017-02-22T08:54:54.366Z,992.16
2017-02-22T08:55:54.395Z,992.11
2017-02-22T08:56:54.423Z,992.2
2017-02-22T08:57:54.449Z,992.21
2017-02-22T08:58:54.477Z,992.15
2017-02-22T08:59:54.507Z,992.18
2017-02-22T09:00:54.531Z,992.2
2017-02-22T09:01:54.566Z,992.2
2017-02-22T09:02:54.589Z,992.16
2017-02-22T09:03:54.616Z,992.13
2017-02-22T09:04:54.640Z,992.19
2017-02-22T09:05:54.670Z,992.22
2017-02-22T09:06:54.695Z,992.2
2017-02-22T09:07:54.724Z,992.18
2017-02-22T09:08:54.753Z,992.21
2017-02-22T09:09:54.778Z,992.22
2017-02-22T09:10:54.806Z,992.16
2017-02-22T09:11:54.835Z,992.15
2017-02-22T09:12:54.856Z,992.2
2017-02-22T09:13:54.889Z,992.17
2017-02-22T09:14:54.918Z,992.16
2017-02-22T09:15:54.942Z,992.16
2017-02-22T09:16:54.970Z,992.23
2017-02-22T09:17:54.999Z,992.22
2017-02-22T09:18:55.020Z,992.11
2017-02-22T09:19:55.053Z,992.19
2017-02-22T09:20:55.078Z,992.15
2017-02-22T09:21:55.107Z,992.14
2017-02-22T09:22:55.135Z,992.14
2017-02-22T09:23:55.155Z,992.14
2017-02-22T09:24:55.189Z,992.11
2017-02-22T09:25:55.218Z,992.16
2017-02-22T09:26:55.243Z,992.11
2017-02-22T09:27:55.271Z,992.13
2017-02-22T09:28:55.296Z,992.13
2017-02-22T09:29:55.325Z,992.11
2017-02-22T09:30:55.354Z,992.24
2017-02-22T09:31:55.382Z,992.22
2017-02-22T09:32:55.407Z,992.23
2017-02-22T09:33:55.435Z,992.19
2017-02-22T09:34:55.460Z,992.22
2017-02-22T09:35:55.489Z,992.34
2017-02-22T09:36:55.517Z,992.3
2017-02-22T09:37:55.543Z,992.26
2017-02-22T09:38:55.567Z,992.21
2017-02-22T09:39:55.600Z,992.06
2017-02-22T09:40:55.625Z,992.18
2017-02-22T09:41:55.654Z,992.21
2017-02-22T09:42:55.683Z,992.2
2017-02-22T09:43:55.703Z,992.19
2017-02-22T09:44:55.736Z,992.2
2017-02-22T09:45:55.761Z,992.22
2017-02-22T09:46:55.790Z,992.26
2017-02-22T09:47:55.818Z,992.17
2017-02-22T09:48:55.843Z,992.2
2017-02-22T09:49:55.871Z,992.13
2017-02-22T09:50:55.901Z,992.16
2017-02-22T09:51:55.925Z,992.25
2017-02-22T09:52:55.954Z,992.18
2017-02-22T09:53:55.983Z,992.23
2017-02-22T09:54:56.008Z,992.26
2017-02-22T09:55:56.037Z,992.38
2017-02-22T09:56:56.061Z,992.31
2017-02-22T09:57:56.089Z,992.37
2017-02-22T09:58:56.117Z,992.41
2017-02-22T09:59:56.144Z,992.29
2017-02-22T10:00:56.176Z,992.29
2017-02-22T10:01:56.215Z,992.37
2017-02-22T10:02:56.224Z,992.34
2017-02-22T10:03:56.253Z,992.26
2017-02-22T10:04:56.282Z,992.32
2017-02-22T10:05:56.306Z,992.37
2017-02-22T10:06:56.337Z,992.37
2017-02-22T10:07:56.359Z,992.29
2017-02-22T10:08:56.390Z,992.33
2017-02-22T10:09:56.419Z,992.36
2017-02-22T10:10:56.443Z,992.31
2017-02-22T10:11:56.471Z,992.37
2017-02-22T10:12:56.497Z,992.3
2017-02-22T10:13:56.525Z,992.4
2017-02-22T10:14:56.559Z,992.37
2017-02-22T10:15:56.579Z,992.38
2017-02-22T10:16:56.607Z,992.38
2017-02-22T10:17:56.632Z,992.41
2017-02-22T10:18:56.661Z,992.44
2017-02-22T10:19:56.689Z,992.39
2017-02-22T10:20:56.718Z,992.39
2017-02-22T10:21:56.743Z,992.35
2017-02-22T10:22:57.019Z,992.39
2017-02-22T10:23:56.799Z,992.38
2017-02-22T10:24:56.821Z,992.36
2017-02-22T10:25:56.854Z,992.38
2017-02-22T10:26:56.878Z,992.39
2017-02-22T10:27:57.159Z,992.32
2017-02-22T10:28:56.936Z,992.29
2017-02-22T10:29:56.961Z,992.25
2017-02-22T10:30:56.990Z,992.27
2017-02-22T10:31:57.014Z,992.34
2017-02-22T10:32:57.291Z,992.33
2017-02-22T10:33:57.072Z,992.34
2017-02-22T10:34:57.097Z,992.36
2017-02-22T10:35:57.125Z,992.29
2017-02-22T10:36:57.153Z,992.34
2017-02-22T10:37:57.429Z,992.27
2017-02-22T10:38:57.207Z,992.27
2017-02-22T10:39:57.232Z,992.2
2017-02-22T10:40:57.261Z,992.2
2017-02-22T10:41:57.290Z,992.05
2017-02-22T10:42:57.561Z,992.14
2017-02-22T10:43:57.343Z,992.11
2017-02-22T10:44:57.368Z,992.06
2017-02-22T10:45:57.396Z,992.08
2017-02-22T10:46:57.426Z,992.09
2017-02-22T10:47:57.698Z,992.09
2017-02-22T10:48:57.475Z,992.16
2017-02-22T10:49:57.507Z,992.19
2017-02-22T10:50:57.532Z,992.25
2017-02-22T10:51:57.561Z,992.22
2017-02-22T10:52:57.862Z,992.2
2017-02-22T10:53:57.613Z,992.23
2017-02-22T10:54:57.639Z,992.25
2017-02-22T10:55:57.668Z,992.23
2017-02-22T10:56:57.697Z,992.27
2017-02-22T10:57:57.722Z,992.26
2017-02-22T10:58:57.751Z,992.28
2017-02-22T10:59:57.775Z,992.25
2017-02-22T11:00:57.804Z,992.24
2017-02-22T11:01:57.833Z,992.21
2017-02-22T11:02:57.860Z,992.21
2017-02-22T11:03:57.882Z,992.24
2017-02-22T11:04:57.915Z,992.22
2017-02-22T11:05:57.936Z,992.17
2017-02-22T11:06:57.968Z,992.21
2017-02-22T11:07:57.993Z,992.18
2017-02-22T11:08:58.023Z,992.21
2017-02-22T11:09:58.046Z,992.21
2017-02-22T11:10:58.072Z,992.24
2017-02-22T11:11:58.104Z,992.26
2017-02-22T11:12:58.129Z,992.16
2017-02-22T11:13:58.155Z,992.17
2017-02-22T11:14:58.185Z,992.19
2017-02-22T11:15:58.211Z,992.13
2017-02-22T11:16:58.275Z,992.06
2017-02-22T11:17:58.264Z,992.2
2017-02-22T11:18:58.293Z,992.21
2017-02-22T11:19:58.317Z,992.05
2017-02-22T11:20:58.348Z,992.11
2017-02-22T11:21:58.376Z,992.13
2017-02-22T11:22:58.405Z,992.07
2017-02-22T11:23:58.430Z,992.05
2017-02-22T11:24:58.454Z,992.03
2017-02-22T11:25:58.484Z,992.08
2017-02-22T11:26:58.511Z,992.05
2017-02-22T11:27:58.537Z,992.03
2017-02-22T11:28:58.566Z,992.05
2017-02-22T11:29:58.589Z,992.02
2017-02-22T11:30:58.620Z,992.03
2017-02-22T11:31:58.642Z,991.96
2017-02-22T11:32:58.672Z,992.05
2017-02-22T11:33:58.700Z,992.05
2017-02-22T11:34:58.726Z,991.99
2017-02-22T11:35:58.753Z,992.06
2017-02-22T11:36:58.779Z,992.02
2017-02-22T11:37:58.809Z,991.96
2017-02-22T11:38:58.834Z,992
2017-02-22T11:39:58.862Z,991.97
2017-02-22T11:40:58.891Z,991.99
2017-02-22T11:41:58.916Z,991.88
2017-02-22T11:42:58.944Z,991.91
2017-02-22T11:43:58.969Z,992.03
2017-02-22T11:44:58.998Z,991.89
2017-02-22T11:45:59.025Z,991.97
2017-02-22T11:46:59.047Z,991.99
2017-02-22T11:47:59.080Z,991.89
2017-02-22T11:48:59.104Z,991.91
2017-02-22T11:49:59.133Z,991.79
2017-02-22T11:50:59.163Z,991.92
2017-02-22T11:51:59.188Z,991.82
2017-02-22T11:52:59.217Z,991.77
2017-02-22T11:53:59.241Z,991.75
2017-02-22T11:54:59.270Z,991.72
2017-02-22T11:55:59.298Z,991.64
2017-02-22T11:56:59.319Z,991.66
2017-02-22T11:57:59.351Z,991.63
2017-02-22T11:58:59.375Z,991.62
2017-02-22T11:59:59.405Z,991.54
2017-02-22T12:00:59.430Z,991.58
2017-02-22T12:01:59.454Z,991.5
2017-02-22T12:02:59.488Z,991.49
2017-02-22T12:03:59.512Z,991.47
2017-02-22T12:04:59.541Z,991.41
2017-02-22T12:05:59.564Z,991.4
2017-02-22T12:06:59.595Z,991.35
2017-02-22T12:07:59.620Z,991.5
2017-02-22T12:08:59.649Z,991.4
2017-02-22T12:09:59.677Z,991.39
2017-02-22T12:10:59.702Z,991.48
2017-02-22T12:11:59.726Z,991.51
2017-02-22T12:12:59.755Z,991.35
2017-02-22T12:13:59.784Z,991.47
2017-02-22T12:14:59.813Z,991.51
2017-02-22T12:15:59.838Z,991.54
2017-02-22T12:16:59.868Z,991.47
2017-02-22T12:17:59.896Z,991.55
2017-02-22T12:18:59.920Z,991.48
2017-02-22T12:19:59.949Z,991.4
2017-02-22T12:21:00.002Z,991.48
2017-02-22T12:22:00.002Z,991.41
2017-02-22T12:23:00.022Z,991.46
2017-02-22T12:24:00.056Z,991.46
2017-02-22T12:25:00.084Z,991.44
2017-02-22T12:26:00.109Z,991.39
2017-02-22T12:27:00.139Z,991.38
2017-02-22T12:28:00.163Z,991.4
2017-02-22T12:29:00.443Z,991.4
2017-02-22T12:30:00.220Z,991.41
2017-02-22T12:31:00.248Z,991.43
2017-02-22T12:32:00.274Z,991.3